sensor_id;sensor_type;location;lat;lon;timestamp;P1;durP1;ratioP1;P2;durP2;ratioP2
24685;SDS011;12804;51.176;4.452;2023-04-06T00:01:57;23.75;;;13.02;;
24685;SDS011;12804;51.176;4.452;2023-04-06T00:04:23;24.70;;;12.73;;
24685;SDS011;12804;51.176;4.452;2023-04-06T00:06:48;22.27;;;12.82;;
24685;SDS011;12804;51.176;4.452;2023-04-06T00:09:14;21.13;;;12.85;;
24685;SDS011;12804;51.176;4.452;2023-04-06T00:11:40;26.05;;;13.40;;
24685;SDS011;12804;51.176;4.452;2023-04-06T00:14:06;22.00;;;13.00;;
24685;SDS011;12804;51.176;4.452;2023-04-06T00:16:32;21.88;;;12.85;;
24685;SDS011;12804;51.176;4.452;2023-04-06T00:18:58;23.33;;;13.32;;
24685;SDS011;12804;51.176;4.452;2023-04-06T00:21:23;23.80;;;13.30;;
24685;SDS011;12804;51.176;4.452;2023-04-06T00:23:50;20.13;;;12.35;;
24685;SDS011;12804;51.176;4.452;2023-04-06T00:26:16;20.80;;;12.63;;
24685;SDS011;12804;51.176;4.452;2023-04-06T00:28:46;21.33;;;12.60;;
24685;SDS011;12804;51.176;4.452;2023-04-06T00:31:12;20.90;;;12.68;;
24685;SDS011;12804;51.176;4.452;2023-04-06T00:33:38;22.77;;;12.48;;
24685;SDS011;12804;51.176;4.452;2023-04-06T00:36:04;23.67;;;12.93;;
24685;SDS011;12804;51.176;4.452;2023-04-06T00:38:30;19.55;;;12.10;;
24685;SDS011;12804;51.176;4.452;2023-04-06T00:40:59;20.67;;;11.70;;
24685;SDS011;12804;51.176;4.452;2023-04-06T00:43:25;19.75;;;12.02;;
24685;SDS011;12804;51.176;4.452;2023-04-06T00:45:51;21.15;;;12.82;;
24685;SDS011;12804;51.176;4.452;2023-04-06T00:48:20;17.73;;;12.05;;
24685;SDS011;12804;51.176;4.452;2023-04-06T00:50:45;19.40;;;12.07;;
24685;SDS011;12804;51.176;4.452;2023-04-06T00:53:11;20.77;;;12.05;;
24685;SDS011;12804;51.176;4.452;2023-04-06T00:55:38;18.15;;;11.65;;
24685;SDS011;12804;51.176;4.452;2023-04-06T00:58:05;20.50;;;12.30;;
24685;SDS011;12804;51.176;4.452;2023-04-06T01:00:38;19.77;;;12.10;;
24685;SDS011;12804;51.176;4.452;2023-04-06T01:03:05;19.98;;;12.00;;
24685;SDS011;12804;51.176;4.452;2023-04-06T01:05:37;18.48;;;11.63;;
24685;SDS011;12804;51.176;4.452;2023-04-06T01:08:09;18.05;;;11.13;;
24685;SDS011;12804;51.176;4.452;2023-04-06T01:10:39;19.92;;;11.50;;
24685;SDS011;12804;51.176;4.452;2023-04-06T01:13:12;20.52;;;12.35;;
24685;SDS011;12804;51.176;4.452;2023-04-06T01:15:46;21.55;;;11.68;;
24685;SDS011;12804;51.176;4.452;2023-04-06T01:18:16;17.77;;;11.48;;
24685;SDS011;12804;51.176;4.452;2023-04-06T01:20:52;19.17;;;10.38;;
24685;SDS011;12804;51.176;4.452;2023-04-06T01:23:19;19.40;;;11.52;;
24685;SDS011;12804;51.176;4.452;2023-04-06T01:25:46;19.52;;;10.45;;
24685;SDS011;12804;51.176;4.452;2023-04-06T01:28:12;22.60;;;11.43;;
24685;SDS011;12804;51.176;4.452;2023-04-06T01:31:05;19.33;;;11.57;;
24685;SDS011;12804;51.176;4.452;2023-04-06T01:33:43;17.77;;;10.98;;
24685;SDS011;12804;51.176;4.452;2023-04-06T01:36:13;19.58;;;11.20;;
24685;SDS011;12804;51.176;4.452;2023-04-06T01:38:40;19.52;;;11.18;;
24685;SDS011;12804;51.176;4.452;2023-04-06T01:41:07;18.33;;;11.07;;
24685;SDS011;12804;51.176;4.452;2023-04-06T01:43:45;18.92;;;11.13;;
24685;SDS011;12804;51.176;4.452;2023-04-06T01:46:12;18.63;;;10.98;;
24685;SDS011;12804;51.176;4.452;2023-04-06T01:48:41;18.80;;;10.43;;
24685;SDS011;12804;51.176;4.452;2023-04-06T01:51:15;17.10;;;10.95;;
24685;SDS011;12804;51.176;4.452;2023-04-06T01:53:50;19.02;;;10.75;;
24685;SDS011;12804;51.176;4.452;2023-04-06T01:56:18;19.85;;;10.98;;
24685;SDS011;12804;51.176;4.452;2023-04-06T01:58:54;16.10;;;10.20;;
24685;SDS011;12804;51.176;4.452;2023-04-06T02:01:21;18.70;;;11.18;;
24685;SDS011;12804;51.176;4.452;2023-04-06T02:03:53;16.55;;;10.80;;
24685;SDS011;12804;51.176;4.452;2023-04-06T02:06:19;17.92;;;10.57;;
24685;SDS011;12804;51.176;4.452;2023-04-06T02:08:45;18.13;;;11.00;;
24685;SDS011;12804;51.176;4.452;2023-04-06T02:11:11;19.00;;;11.23;;
24685;SDS011;12804;51.176;4.452;2023-04-06T02:13:45;17.38;;;11.07;;
24685;SDS011;12804;51.176;4.452;2023-04-06T02:16:11;18.77;;;10.63;;
24685;SDS011;12804;51.176;4.452;2023-04-06T02:18:37;18.45;;;11.13;;
24685;SDS011;12804;51.176;4.452;2023-04-06T02:21:03;17.45;;;10.93;;
24685;SDS011;12804;51.176;4.452;2023-04-06T02:23:29;19.23;;;10.55;;
24685;SDS011;12804;51.176;4.452;2023-04-06T02:25:56;17.73;;;10.80;;
24685;SDS011;12804;51.176;4.452;2023-04-06T02:28:22;18.45;;;10.80;;
24685;SDS011;12804;51.176;4.452;2023-04-06T02:30:48;19.63;;;11.07;;
24685;SDS011;12804;51.176;4.452;2023-04-06T02:33:14;15.85;;;11.02;;
24685;SDS011;12804;51.176;4.452;2023-04-06T02:35:45;17.80;;;11.10;;
24685;SDS011;12804;51.176;4.452;2023-04-06T02:38:11;19.13;;;10.88;;
24685;SDS011;12804;51.176;4.452;2023-04-06T02:40:37;18.42;;;11.38;;
24685;SDS011;12804;51.176;4.452;2023-04-06T02:43:15;18.73;;;11.45;;
24685;SDS011;12804;51.176;4.452;2023-04-06T02:45:42;18.27;;;10.80;;
24685;SDS011;12804;51.176;4.452;2023-04-06T02:48:09;18.20;;;11.07;;
24685;SDS011;12804;51.176;4.452;2023-04-06T02:50:36;17.08;;;11.35;;
24685;SDS011;12804;51.176;4.452;2023-04-06T02:53:04;16.17;;;10.98;;
24685;SDS011;12804;51.176;4.452;2023-04-06T02:55:31;18.55;;;10.93;;
24685;SDS011;12804;51.176;4.452;2023-04-06T02:57:57;17.45;;;10.98;;
24685;SDS011;12804;51.176;4.452;2023-04-06T03:00:28;18.83;;;11.07;;
24685;SDS011;12804;51.176;4.452;2023-04-06T03:02:54;17.20;;;10.75;;
24685;SDS011;12804;51.176;4.452;2023-04-06T03:05:20;20.63;;;11.15;;
24685;SDS011;12804;51.176;4.452;2023-04-06T03:07:46;17.23;;;10.75;;
24685;SDS011;12804;51.176;4.452;2023-04-06T03:10:20;20.38;;;11.65;;
24685;SDS011;12804;51.176;4.452;2023-04-06T03:12:47;19.50;;;10.93;;
24685;SDS011;12804;51.176;4.452;2023-04-06T03:17:59;18.95;;;10.23;;
24685;SDS011;12804;51.176;4.452;2023-04-06T03:20:33;17.02;;;10.35;;
24685;SDS011;12804;51.176;4.452;2023-04-06T03:22:59;16.15;;;10.15;;
24685;SDS011;12804;51.176;4.452;2023-04-06T03:25:29;17.42;;;10.75;;
24685;SDS011;12804;51.176;4.452;2023-04-06T03:28:02;15.50;;;10.43;;
24685;SDS011;12804;51.176;4.452;2023-04-06T03:30:30;16.13;;;11.02;;
24685;SDS011;12804;51.176;4.452;2023-04-06T03:32:56;15.65;;;10.32;;
24685;SDS011;12804;51.176;4.452;2023-04-06T03:35:25;15.80;;;10.57;;
24685;SDS011;12804;51.176;4.452;2023-04-06T03:37:50;16.45;;;10.45;;
24685;SDS011;12804;51.176;4.452;2023-04-06T03:40:16;17.90;;;10.50;;
24685;SDS011;12804;51.176;4.452;2023-04-06T03:42:42;19.27;;;10.15;;
24685;SDS011;12804;51.176;4.452;2023-04-06T03:45:12;18.38;;;10.90;;
24685;SDS011;12804;51.176;4.452;2023-04-06T03:47:44;15.13;;;10.45;;
24685;SDS011;12804;51.176;4.452;2023-04-06T03:50:11;18.88;;;11.30;;
24685;SDS011;12804;51.176;4.452;2023-04-06T03:52:37;17.15;;;10.60;;
24685;SDS011;12804;51.176;4.452;2023-04-06T03:55:03;17.35;;;10.23;;
24685;SDS011;12804;51.176;4.452;2023-04-06T03:57:29;16.58;;;10.20;;
24685;SDS011;12804;51.176;4.452;2023-04-06T03:59:56;18.15;;;10.93;;
24685;SDS011;12804;51.176;4.452;2023-04-06T04:02:25;17.33;;;10.63;;
24685;SDS011;12804;51.176;4.452;2023-04-06T04:04:51;20.40;;;10.63;;
24685;SDS011;12804;51.176;4.452;2023-04-06T04:07:17;19.88;;;10.95;;
24685;SDS011;12804;51.176;4.452;2023-04-06T04:09:43;20.38;;;10.93;;
24685;SDS011;12804;51.176;4.452;2023-04-06T04:12:10;17.52;;;10.50;;
24685;SDS011;12804;51.176;4.452;2023-04-06T04:14:36;19.23;;;11.13;;
24685;SDS011;12804;51.176;4.452;2023-04-06T04:17:01;21.08;;;10.55;;
24685;SDS011;12804;51.176;4.452;2023-04-06T04:19:27;17.63;;;10.57;;
24685;SDS011;12804;51.176;4.452;2023-04-06T04:21:54;19.55;;;10.57;;
24685;SDS011;12804;51.176;4.452;2023-04-06T04:24:28;22.77;;;10.65;;
24685;SDS011;12804;51.176;4.452;2023-04-06T04:26:54;22.77;;;10.52;;
24685;SDS011;12804;51.176;4.452;2023-04-06T04:29:22;21.48;;;11.48;;
24685;SDS011;12804;51.176;4.452;2023-04-06T04:31:49;22.63;;;11.57;;
24685;SDS011;12804;51.176;4.452;2023-04-06T04:34:16;17.33;;;10.50;;
24685;SDS011;12804;51.176;4.452;2023-04-06T04:36:45;17.88;;;10.75;;
24685;SDS011;12804;51.176;4.452;2023-04-06T04:39:18;18.58;;;10.50;;
24685;SDS011;12804;51.176;4.452;2023-04-06T04:41:49;19.75;;;11.15;;
24685;SDS011;12804;51.176;4.452;2023-04-06T04:44:15;17.40;;;10.25;;
24685;SDS011;12804;51.176;4.452;2023-04-06T04:46:41;19.65;;;11.38;;
24685;SDS011;12804;51.176;4.452;2023-04-06T04:49:09;16.15;;;9.95;;
24685;SDS011;12804;51.176;4.452;2023-04-06T04:51:35;19.05;;;10.23;;
24685;SDS011;12804;51.176;4.452;2023-04-06T04:54:12;19.77;;;11.18;;
24685;SDS011;12804;51.176;4.452;2023-04-06T04:56:39;19.75;;;11.25;;
24685;SDS011;12804;51.176;4.452;2023-04-06T04:59:22;19.27;;;11.02;;
24685;SDS011;12804;51.176;4.452;2023-04-06T05:01:54;21.38;;;11.02;;
24685;SDS011;12804;51.176;4.452;2023-04-06T05:04:28;18.67;;;11.30;;
24685;SDS011;12804;51.176;4.452;2023-04-06T05:07:08;17.42;;;10.48;;
24685;SDS011;12804;51.176;4.452;2023-04-06T05:09:36;16.30;;;10.80;;
24685;SDS011;12804;51.176;4.452;2023-04-06T05:12:03;17.23;;;10.95;;
24685;SDS011;12804;51.176;4.452;2023-04-06T05:14:33;18.73;;;11.05;;
24685;SDS011;12804;51.176;4.452;2023-04-06T05:17:02;15.98;;;10.45;;
24685;SDS011;12804;51.176;4.452;2023-04-06T05:19:28;18.55;;;10.98;;
24685;SDS011;12804;51.176;4.452;2023-04-06T05:21:55;21.42;;;11.57;;
24685;SDS011;12804;51.176;4.452;2023-04-06T05:24:21;22.58;;;11.43;;
24685;SDS011;12804;51.176;4.452;2023-04-06T05:26:48;19.08;;;11.50;;
24685;SDS011;12804;51.176;4.452;2023-04-06T05:29:20;20.67;;;12.02;;
24685;SDS011;12804;51.176;4.452;2023-04-06T05:31:46;18.67;;;11.45;;
24685;SDS011;12804;51.176;4.452;2023-04-06T05:34:12;18.45;;;10.90;;
24685;SDS011;12804;51.176;4.452;2023-04-06T05:36:39;21.33;;;11.98;;
24685;SDS011;12804;51.176;4.452;2023-04-06T05:39:14;17.45;;;11.63;;
24685;SDS011;12804;51.176;4.452;2023-04-06T05:41:48;22.00;;;12.35;;
24685;SDS011;12804;51.176;4.452;2023-04-06T05:44:17;22.45;;;12.70;;
24685;SDS011;12804;51.176;4.452;2023-04-06T05:46:48;17.88;;;12.02;;
24685;SDS011;12804;51.176;4.452;2023-04-06T05:49:15;22.05;;;11.77;;
24685;SDS011;12804;51.176;4.452;2023-04-06T05:51:41;22.70;;;12.65;;
24685;SDS011;12804;51.176;4.452;2023-04-06T05:54:07;20.10;;;13.02;;
24685;SDS011;12804;51.176;4.452;2023-04-06T05:56:33;23.63;;;13.45;;
24685;SDS011;12804;51.176;4.452;2023-04-06T05:59:00;25.55;;;13.55;;
24685;SDS011;12804;51.176;4.452;2023-04-06T06:01:28;26.92;;;13.50;;
24685;SDS011;12804;51.176;4.452;2023-04-06T06:03:54;19.15;;;12.45;;
24685;SDS011;12804;51.176;4.452;2023-04-06T06:06:23;23.67;;;13.88;;
24685;SDS011;12804;51.176;4.452;2023-04-06T06:09:10;23.48;;;13.75;;
24685;SDS011;12804;51.176;4.452;2023-04-06T06:11:42;21.38;;;13.95;;
24685;SDS011;12804;51.176;4.452;2023-04-06T06:14:09;23.52;;;13.50;;
24685;SDS011;12804;51.176;4.452;2023-04-06T06:16:37;21.02;;;13.13;;
24685;SDS011;12804;51.176;4.452;2023-04-06T06:19:05;22.13;;;13.85;;
24685;SDS011;12804;51.176;4.452;2023-04-06T06:21:31;24.27;;;15.25;;
24685;SDS011;12804;51.176;4.452;2023-04-06T06:23:57;22.58;;;14.75;;
24685;SDS011;12804;51.176;4.452;2023-04-06T06:26:23;21.65;;;14.60;;
24685;SDS011;12804;51.176;4.452;2023-04-06T06:28:49;24.77;;;14.75;;
24685;SDS011;12804;51.176;4.452;2023-04-06T06:31:15;24.77;;;15.25;;
24685;SDS011;12804;51.176;4.452;2023-04-06T06:33:42;24.88;;;15.55;;
24685;SDS011;12804;51.176;4.452;2023-04-06T06:36:08;26.80;;;15.60;;
24685;SDS011;12804;51.176;4.452;2023-04-06T06:38:34;27.30;;;16.90;;
24685;SDS011;12804;51.176;4.452;2023-04-06T06:41:00;26.60;;;16.40;;
24685;SDS011;12804;51.176;4.452;2023-04-06T06:43:29;24.00;;;16.75;;
24685;SDS011;12804;51.176;4.452;2023-04-06T06:46:01;28.45;;;17.00;;
24685;SDS011;12804;51.176;4.452;2023-04-06T06:48:27;28.58;;;16.83;;
24685;SDS011;12804;51.176;4.452;2023-04-06T06:50:53;30.23;;;18.23;;
24685;SDS011;12804;51.176;4.452;2023-04-06T06:53:19;25.92;;;17.30;;
24685;SDS011;12804;51.176;4.452;2023-04-06T06:55:45;27.83;;;17.73;;
24685;SDS011;12804;51.176;4.452;2023-04-06T06:58:11;29.95;;;18.38;;
24685;SDS011;12804;51.176;4.452;2023-04-06T07:00:37;26.20;;;16.60;;
24685;SDS011;12804;51.176;4.452;2023-04-06T07:03:03;26.40;;;17.08;;
24685;SDS011;12804;51.176;4.452;2023-04-06T07:05:29;25.95;;;17.33;;
24685;SDS011;12804;51.176;4.452;2023-04-06T07:07:57;24.70;;;17.25;;
24685;SDS011;12804;51.176;4.452;2023-04-06T07:10:24;28.15;;;17.17;;
24685;SDS011;12804;51.176;4.452;2023-04-06T07:12:51;25.98;;;17.38;;
24685;SDS011;12804;51.176;4.452;2023-04-06T07:15:17;26.30;;;16.95;;
24685;SDS011;12804;51.176;4.452;2023-04-06T07:17:43;30.42;;;18.42;;
24685;SDS011;12804;51.176;4.452;2023-04-06T07:20:12;29.85;;;19.13;;
24685;SDS011;12804;51.176;4.452;2023-04-06T07:22:39;30.65;;;19.10;;
24685;SDS011;12804;51.176;4.452;2023-04-06T07:25:08;30.60;;;19.45;;
24685;SDS011;12804;51.176;4.452;2023-04-06T07:27:34;29.55;;;18.00;;
24685;SDS011;12804;51.176;4.452;2023-04-06T07:30:00;25.02;;;16.02;;
24685;SDS011;12804;51.176;4.452;2023-04-06T07:32:26;23.63;;;15.88;;
24685;SDS011;12804;51.176;4.452;2023-04-06T07:34:52;26.00;;;16.42;;
24685;SDS011;12804;51.176;4.452;2023-04-06T07:37:18;27.40;;;15.73;;
24685;SDS011;12804;51.176;4.452;2023-04-06T07:39:46;29.55;;;16.23;;
24685;SDS011;12804;51.176;4.452;2023-04-06T07:42:12;24.90;;;14.80;;
24685;SDS011;12804;51.176;4.452;2023-04-06T07:44:38;21.63;;;14.57;;
24685;SDS011;12804;51.176;4.452;2023-04-06T07:47:04;20.85;;;14.48;;
24685;SDS011;12804;51.176;4.452;2023-04-06T07:49:30;23.48;;;13.98;;
24685;SDS011;12804;51.176;4.452;2023-04-06T07:51:58;23.00;;;15.07;;
24685;SDS011;12804;51.176;4.452;2023-04-06T07:54:25;23.45;;;14.05;;
24685;SDS011;12804;51.176;4.452;2023-04-06T07:56:52;20.40;;;13.30;;
24685;SDS011;12804;51.176;4.452;2023-04-06T07:59:18;20.67;;;13.35;;
24685;SDS011;12804;51.176;4.452;2023-04-06T08:01:44;22.17;;;13.20;;
24685;SDS011;12804;51.176;4.452;2023-04-06T08:04:10;21.02;;;13.63;;
24685;SDS011;12804;51.176;4.452;2023-04-06T08:06:36;21.92;;;14.45;;
24685;SDS011;12804;51.176;4.452;2023-04-06T08:09:02;19.38;;;13.40;;
24685;SDS011;12804;51.176;4.452;2023-04-06T08:11:28;19.58;;;13.05;;
24685;SDS011;12804;51.176;4.452;2023-04-06T08:13:54;17.73;;;11.80;;
24685;SDS011;12804;51.176;4.452;2023-04-06T08:16:22;18.25;;;11.38;;
24685;SDS011;12804;51.176;4.452;2023-04-06T08:18:49;18.73;;;11.93;;
24685;SDS011;12804;51.176;4.452;2023-04-06T08:21:15;19.15;;;12.52;;
24685;SDS011;12804;51.176;4.452;2023-04-06T08:23:41;16.60;;;10.55;;
24685;SDS011;12804;51.176;4.452;2023-04-06T08:26:06;13.40;;;9.55;;
24685;SDS011;12804;51.176;4.452;2023-04-06T08:28:32;16.08;;;10.85;;
24685;SDS011;12804;51.176;4.452;2023-04-06T08:31:02;16.35;;;10.73;;
24685;SDS011;12804;51.176;4.452;2023-04-06T08:33:32;15.23;;;11.10;;
24685;SDS011;12804;51.176;4.452;2023-04-06T08:36:08;16.55;;;10.38;;
24685;SDS011;12804;51.176;4.452;2023-04-06T08:38:35;14.85;;;10.32;;
24685;SDS011;12804;51.176;4.452;2023-04-06T08:41:06;15.75;;;10.35;;
24685;SDS011;12804;51.176;4.452;2023-04-06T08:43:34;16.40;;;10.10;;
24685;SDS011;12804;51.176;4.452;2023-04-06T08:46:08;14.90;;;9.65;;
24685;SDS011;12804;51.176;4.452;2023-04-06T08:48:36;12.73;;;9.48;;
24685;SDS011;12804;51.176;4.452;2023-04-06T08:51:03;12.18;;;9.13;;
24685;SDS011;12804;51.176;4.452;2023-04-06T08:53:29;15.70;;;9.40;;
24685;SDS011;12804;51.176;4.452;2023-04-06T08:55:56;15.25;;;9.00;;
24685;SDS011;12804;51.176;4.452;2023-04-06T08:58:23;12.63;;;8.65;;
24685;SDS011;12804;51.176;4.452;2023-04-06T09:00:50;10.75;;;7.43;;
24685;SDS011;12804;51.176;4.452;2023-04-06T09:03:17;8.75;;;6.85;;
24685;SDS011;12804;51.176;4.452;2023-04-06T09:05:45;9.35;;;6.65;;
24685;SDS011;12804;51.176;4.452;2023-04-06T09:08:12;8.48;;;6.45;;
24685;SDS011;12804;51.176;4.452;2023-04-06T09:10:41;14.02;;;6.97;;
24685;SDS011;12804;51.176;4.452;2023-04-06T09:13:08;9.45;;;5.90;;
24685;SDS011;12804;51.176;4.452;2023-04-06T09:15:34;14.13;;;6.40;;
24685;SDS011;12804;51.176;4.452;2023-04-06T09:18:00;10.85;;;5.90;;
24685;SDS011;12804;51.176;4.452;2023-04-06T09:20:27;9.75;;;5.78;;
24685;SDS011;12804;51.176;4.452;2023-04-06T09:22:53;9.25;;;5.90;;
24685;SDS011;12804;51.176;4.452;2023-04-06T09:25:21;7.93;;;5.55;;
24685;SDS011;12804;51.176;4.452;2023-04-06T09:27:48;9.43;;;5.88;;
24685;SDS011;12804;51.176;4.452;2023-04-06T09:30:24;7.57;;;5.63;;
24685;SDS011;12804;51.176;4.452;2023-04-06T09:35:17;8.38;;;5.57;;
24685;SDS011;12804;51.176;4.452;2023-04-06T09:37:48;9.90;;;5.68;;
24685;SDS011;12804;51.176;4.452;2023-04-06T09:40:15;9.70;;;6.15;;
24685;SDS011;12804;51.176;4.452;2023-04-06T09:42:45;9.52;;;6.32;;
24685;SDS011;12804;51.176;4.452;2023-04-06T09:45:12;10.73;;;7.28;;
24685;SDS011;12804;51.176;4.452;2023-04-06T09:47:39;8.73;;;6.88;;
24685;SDS011;12804;51.176;4.452;2023-04-06T09:50:08;10.30;;;7.13;;
24685;SDS011;12804;51.176;4.452;2023-04-06T09:55:32;9.05;;;6.97;;
24685;SDS011;12804;51.176;4.452;2023-04-06T09:58:06;10.23;;;7.22;;
24685;SDS011;12804;51.176;4.452;2023-04-06T10:00:42;13.38;;;7.35;;
24685;SDS011;12804;51.176;4.452;2023-04-06T10:03:27;11.65;;;7.50;;
24685;SDS011;12804;51.176;4.452;2023-04-06T10:06:04;12.93;;;7.82;;
24685;SDS011;12804;51.176;4.452;2023-04-06T10:08:31;12.70;;;8.43;;
24685;SDS011;12804;51.176;4.452;2023-04-06T10:11:00;12.05;;;8.05;;
24685;SDS011;12804;51.176;4.452;2023-04-06T10:13:27;10.95;;;8.45;;
24685;SDS011;12804;51.176;4.452;2023-04-06T10:15:53;11.35;;;8.57;;
24685;SDS011;12804;51.176;4.452;2023-04-06T10:18:20;13.63;;;8.77;;
24685;SDS011;12804;51.176;4.452;2023-04-06T10:20:48;10.88;;;8.32;;
24685;SDS011;12804;51.176;4.452;2023-04-06T10:23:38;12.30;;;9.10;;
24685;SDS011;12804;51.176;4.452;2023-04-06T10:26:12;14.07;;;8.77;;
24685;SDS011;12804;51.176;4.452;2023-04-06T10:28:42;14.07;;;9.00;;
24685;SDS011;12804;51.176;4.452;2023-04-06T10:31:09;14.43;;;8.57;;
24685;SDS011;12804;51.176;4.452;2023-04-06T10:33:35;11.65;;;8.60;;
24685;SDS011;12804;51.176;4.452;2023-04-06T10:36:14;11.75;;;8.43;;
24685;SDS011;12804;51.176;4.452;2023-04-06T10:38:47;11.10;;;8.50;;
24685;SDS011;12804;51.176;4.452;2023-04-06T10:41:20;13.02;;;9.27;;
24685;SDS011;12804;51.176;4.452;2023-04-06T10:43:46;17.13;;;9.27;;
24685;SDS011;12804;51.176;4.452;2023-04-06T10:46:28;13.77;;;8.82;;
24685;SDS011;12804;51.176;4.452;2023-04-06T10:48:55;13.85;;;8.95;;
24685;SDS011;12804;51.176;4.452;2023-04-06T10:51:28;11.55;;;8.40;;
24685;SDS011;12804;51.176;4.452;2023-04-06T10:53:54;13.48;;;9.50;;
24685;SDS011;12804;51.176;4.452;2023-04-06T10:56:21;13.10;;;9.60;;
24685;SDS011;12804;51.176;4.452;2023-04-06T10:58:54;13.20;;;9.52;;
24685;SDS011;12804;51.176;4.452;2023-04-06T11:01:22;13.35;;;9.52;;
24685;SDS011;12804;51.176;4.452;2023-04-06T11:03:50;15.48;;;9.55;;
24685;SDS011;12804;51.176;4.452;2023-04-06T11:06:24;13.63;;;9.57;;
24685;SDS011;12804;51.176;4.452;2023-04-06T11:08:52;14.85;;;10.00;;
24685;SDS011;12804;51.176;4.452;2023-04-06T11:11:19;15.43;;;9.55;;
24685;SDS011;12804;51.176;4.452;2023-04-06T11:13:51;13.23;;;9.68;;
24685;SDS011;12804;51.176;4.452;2023-04-06T11:16:18;13.18;;;9.18;;
24685;SDS011;12804;51.176;4.452;2023-04-06T11:18:55;15.52;;;10.18;;
24685;SDS011;12804;51.176;4.452;2023-04-06T11:21:45;18.00;;;10.45;;
24685;SDS011;12804;51.176;4.452;2023-04-06T11:24:14;16.08;;;10.68;;
24685;SDS011;12804;51.176;4.452;2023-04-06T11:26:48;15.27;;;10.82;;
24685;SDS011;12804;51.176;4.452;2023-04-06T11:29:20;14.43;;;10.38;;
24685;SDS011;12804;51.176;4.452;2023-04-06T11:31:51;16.73;;;10.70;;
24685;SDS011;12804;51.176;4.452;2023-04-06T11:34:19;15.98;;;11.25;;
24685;SDS011;12804;51.176;4.452;2023-04-06T11:36:48;19.05;;;12.07;;
24685;SDS011;12804;51.176;4.452;2023-04-06T11:39:22;15.27;;;10.77;;
24685;SDS011;12804;51.176;4.452;2023-04-06T11:41:54;15.10;;;11.02;;
24685;SDS011;12804;51.176;4.452;2023-04-06T11:44:37;17.15;;;11.32;;
24685;SDS011;12804;51.176;4.452;2023-04-06T11:47:05;15.00;;;11.13;;
24685;SDS011;12804;51.176;4.452;2023-04-06T11:49:32;15.48;;;10.73;;
24685;SDS011;12804;51.176;4.452;2023-04-06T11:52:01;17.55;;;11.43;;
24685;SDS011;12804;51.176;4.452;2023-04-06T11:54:34;16.38;;;11.68;;
24685;SDS011;12804;51.176;4.452;2023-04-06T11:57:01;18.13;;;11.65;;
24685;SDS011;12804;51.176;4.452;2023-04-06T11:59:28;17.40;;;11.90;;
24685;SDS011;12804;51.176;4.452;2023-04-06T12:01:54;16.20;;;11.80;;
24685;SDS011;12804;51.176;4.452;2023-04-06T12:04:21;17.13;;;11.95;;
24685;SDS011;12804;51.176;4.452;2023-04-06T12:06:46;18.70;;;11.85;;
24685;SDS011;12804;51.176;4.452;2023-04-06T12:09:13;14.90;;;11.70;;
24685;SDS011;12804;51.176;4.452;2023-04-06T12:11:39;15.48;;;11.40;;
24685;SDS011;12804;51.176;4.452;2023-04-06T12:14:06;16.30;;;11.98;;
24685;SDS011;12804;51.176;4.452;2023-04-06T12:16:33;18.00;;;12.32;;
24685;SDS011;12804;51.176;4.452;2023-04-06T12:18:59;16.58;;;11.68;;
24685;SDS011;12804;51.176;4.452;2023-04-06T12:21:30;15.85;;;11.05;;
24685;SDS011;12804;51.176;4.452;2023-04-06T12:23:57;18.65;;;11.77;;
24685;SDS011;12804;51.176;4.452;2023-04-06T12:26:23;19.00;;;11.85;;
24685;SDS011;12804;51.176;4.452;2023-04-06T12:28:50;15.63;;;11.25;;
24685;SDS011;12804;51.176;4.452;2023-04-06T12:31:17;17.60;;;11.73;;
24685;SDS011;12804;51.176;4.452;2023-04-06T12:33:46;16.83;;;10.60;;
24685;SDS011;12804;51.176;4.452;2023-04-06T12:36:13;17.08;;;11.52;;
24685;SDS011;12804;51.176;4.452;2023-04-06T12:38:40;14.02;;;10.95;;
24685;SDS011;12804;51.176;4.452;2023-04-06T12:41:07;16.38;;;11.68;;
24685;SDS011;12804;51.176;4.452;2023-04-06T12:43:33;14.15;;;10.75;;
24685;SDS011;12804;51.176;4.452;2023-04-06T12:45:59;15.18;;;10.90;;
24685;SDS011;12804;51.176;4.452;2023-04-06T12:48:25;16.38;;;11.95;;
24685;SDS011;12804;51.176;4.452;2023-04-06T12:50:59;15.32;;;11.73;;
24685;SDS011;12804;51.176;4.452;2023-04-06T12:53:27;15.23;;;10.80;;
24685;SDS011;12804;51.176;4.452;2023-04-06T12:55:53;14.93;;;10.90;;
24685;SDS011;12804;51.176;4.452;2023-04-06T12:58:21;16.45;;;11.20;;
24685;SDS011;12804;51.176;4.452;2023-04-06T13:00:47;15.95;;;11.30;;
24685;SDS011;12804;51.176;4.452;2023-04-06T13:03:14;13.93;;;10.90;;
24685;SDS011;12804;51.176;4.452;2023-04-06T13:05:43;17.83;;;11.77;;
24685;SDS011;12804;51.176;4.452;2023-04-06T13:08:10;16.33;;;10.65;;
24685;SDS011;12804;51.176;4.452;2023-04-06T13:10:36;16.33;;;11.75;;
24685;SDS011;12804;51.176;4.452;2023-04-06T13:13:02;14.20;;;10.55;;
24685;SDS011;12804;51.176;4.452;2023-04-06T13:15:28;15.75;;;10.63;;
24685;SDS011;12804;51.176;4.452;2023-04-06T13:17:54;15.30;;;10.65;;
24685;SDS011;12804;51.176;4.452;2023-04-06T13:20:20;14.57;;;10.50;;
24685;SDS011;12804;51.176;4.452;2023-04-06T13:22:46;17.27;;;10.80;;
24685;SDS011;12804;51.176;4.452;2023-04-06T13:25:12;15.73;;;10.95;;
24685;SDS011;12804;51.176;4.452;2023-04-06T13:27:38;15.35;;;10.82;;
24685;SDS011;12804;51.176;4.452;2023-04-06T13:30:04;13.20;;;10.23;;
24685;SDS011;12804;51.176;4.452;2023-04-06T13:32:30;13.68;;;10.50;;
24685;SDS011;12804;51.176;4.452;2023-04-06T13:34:57;12.30;;;10.68;;
24685;SDS011;12804;51.176;4.452;2023-04-06T13:37:23;12.57;;;10.80;;
24685;SDS011;12804;51.176;4.452;2023-04-06T13:39:49;13.00;;;10.77;;
24685;SDS011;12804;51.176;4.452;2023-04-06T13:42:15;13.88;;;10.23;;
24685;SDS011;12804;51.176;4.452;2023-04-06T13:44:41;13.18;;;10.80;;
24685;SDS011;12804;51.176;4.452;2023-04-06T13:47:07;12.95;;;9.57;;
24685;SDS011;12804;51.176;4.452;2023-04-06T13:49:33;15.48;;;11.35;;
24685;SDS011;12804;51.176;4.452;2023-04-06T13:51:58;14.07;;;10.63;;
24685;SDS011;12804;51.176;4.452;2023-04-06T13:54:26;13.45;;;10.75;;
24685;SDS011;12804;51.176;4.452;2023-04-06T13:56:52;14.75;;;11.63;;
24685;SDS011;12804;51.176;4.452;2023-04-06T13:59:18;17.40;;;11.98;;
24685;SDS011;12804;51.176;4.452;2023-04-06T14:01:44;15.27;;;12.10;;
24685;SDS011;12804;51.176;4.452;2023-04-06T14:04:10;13.98;;;11.68;;
24685;SDS011;12804;51.176;4.452;2023-04-06T14:06:36;18.30;;;12.48;;
24685;SDS011;12804;51.176;4.452;2023-04-06T14:09:02;16.55;;;12.55;;
24685;SDS011;12804;51.176;4.452;2023-04-06T14:11:29;16.63;;;13.45;;
24685;SDS011;12804;51.176;4.452;2023-04-06T14:13:55;17.15;;;13.45;;
24685;SDS011;12804;51.176;4.452;2023-04-06T14:16:22;18.92;;;14.05;;
24685;SDS011;12804;51.176;4.452;2023-04-06T14:18:49;18.80;;;14.07;;
24685;SDS011;12804;51.176;4.452;2023-04-06T14:21:15;19.45;;;14.23;;
24685;SDS011;12804;51.176;4.452;2023-04-06T14:23:41;19.75;;;14.73;;
24685;SDS011;12804;51.176;4.452;2023-04-06T14:26:07;20.15;;;14.70;;
24685;SDS011;12804;51.176;4.452;2023-04-06T14:28:35;21.40;;;14.27;;
24685;SDS011;12804;51.176;4.452;2023-04-06T14:31:02;19.30;;;14.30;;
24685;SDS011;12804;51.176;4.452;2023-04-06T14:33:34;20.08;;;15.10;;
24685;SDS011;12804;51.176;4.452;2023-04-06T14:36:04;21.25;;;14.73;;
24685;SDS011;12804;51.176;4.452;2023-04-06T14:38:33;19.38;;;13.98;;